sensor_id;sensor_type;location;lat;lon;timestamp;temperature;humidity
5938;DHT22;2994;51.220;4.412;2022-10-16T00:01:11;17.09;68.30
5938;DHT22;2994;51.220;4.412;2022-10-16T00:03:38;17.11;68.38
5938;DHT22;2994;51.220;4.412;2022-10-16T00:06:10;17.17;68.10
5938;DHT22;2994;51.220;4.412;2022-10-16T00:08:36;17.15;68.23
5938;DHT22;2994;51.220;4.412;2022-10-16T00:11:09;17.14;68.27
5938;DHT22;2994;51.220;4.412;2022-10-16T00:13:39;17.16;68.18
5938;DHT22;2994;51.220;4.412;2022-10-16T00:16:06;17.09;68.65
5938;DHT22;2994;51.220;4.412;2022-10-16T00:18:35;17.04;68.81
5938;DHT22;2994;51.220;4.412;2022-10-16T00:21:19;17.03;68.89
5938;DHT22;2994;51.220;4.412;2022-10-16T00:23:46;17.07;68.90
5938;DHT22;2994;51.220;4.412;2022-10-16T00:26:14;17.08;68.96
5938;DHT22;2994;51.220;4.412;2022-10-16T00:28:40;17.07;68.98
5938;DHT22;2994;51.220;4.412;2022-10-16T00:31:10;17.09;68.87
5938;DHT22;2994;51.220;4.412;2022-10-16T00:33:37;17.08;69.06
5938;DHT22;2994;51.220;4.412;2022-10-16T00:36:04;17.06;69.15
5938;DHT22;2994;51.220;4.412;2022-10-16T00:38:30;17.06;69.16
5938;DHT22;2994;51.220;4.412;2022-10-16T00:40:56;17.05;69.20
5938;DHT22;2994;51.220;4.412;2022-10-16T00:43:53;17.03;69.37
5938;DHT22;2994;51.220;4.412;2022-10-16T00:46:27;17.06;69.16
5938;DHT22;2994;51.220;4.412;2022-10-16T00:49:14;17.04;69.31
5938;DHT22;2994;51.220;4.412;2022-10-16T00:51:46;16.99;69.68
5938;DHT22;2994;51.220;4.412;2022-10-16T00:54:18;17.01;69.70
5938;DHT22;2994;51.220;4.412;2022-10-16T00:56:46;17.04;69.45
5938;DHT22;2994;51.220;4.412;2022-10-16T00:59:18;16.96;69.78
5938;DHT22;2994;51.220;4.412;2022-10-16T01:01:44;16.99;69.65
5938;DHT22;2994;51.220;4.412;2022-10-16T01:04:10;17.00;69.71
5938;DHT22;2994;51.220;4.412;2022-10-16T01:12:51;16.98;69.94
5938;DHT22;2994;51.220;4.412;2022-10-16T01:15:27;17.00;69.74
5938;DHT22;2994;51.220;4.412;2022-10-16T01:30:20;16.92;70.12
5938;DHT22;2994;51.220;4.412;2022-10-16T01:32:39;16.92;70.23
5938;DHT22;2994;51.220;4.412;2022-10-16T01:37:45;16.89;70.43
5938;DHT22;2994;51.220;4.412;2022-10-16T01:40:13;16.81;70.69
5938;DHT22;2994;51.220;4.412;2022-10-16T01:42:42;16.78;70.87
5938;DHT22;2994;51.220;4.412;2022-10-16T01:45:11;16.78;70.73
5938;DHT22;2994;51.220;4.412;2022-10-16T01:47:38;16.81;70.52
5938;DHT22;2994;51.220;4.412;2022-10-16T01:50:06;16.80;70.45
5938;DHT22;2994;51.220;4.412;2022-10-16T01:52:36;16.75;70.72
5938;DHT22;2994;51.220;4.412;2022-10-16T01:55:04;16.77;70.53
5938;DHT22;2994;51.220;4.412;2022-10-16T01:57:32;16.73;70.77
5938;DHT22;2994;51.220;4.412;2022-10-16T02:00:02;16.72;70.82
5938;DHT22;2994;51.220;4.412;2022-10-16T02:02:30;16.72;70.79
5938;DHT22;2994;51.220;4.412;2022-10-16T02:05:05;16.73;70.89
5938;DHT22;2994;51.220;4.412;2022-10-16T02:07:34;16.74;70.76
5938;DHT22;2994;51.220;4.412;2022-10-16T02:10:00;16.72;70.87
5938;DHT22;2994;51.220;4.412;2022-10-16T02:12:29;16.64;71.41
5938;DHT22;2994;51.220;4.412;2022-10-16T02:14:55;16.72;70.93
5938;DHT22;2994;51.220;4.412;2022-10-16T02:17:21;16.64;71.38
5938;DHT22;2994;51.220;4.412;2022-10-16T02:19:48;16.66;71.29
5938;DHT22;2994;51.220;4.412;2022-10-16T02:25:10;16.67;71.28
5938;DHT22;2994;51.220;4.412;2022-10-16T02:30:33;16.60;71.47
5938;DHT22;2994;51.220;4.412;2022-10-16T02:33:00;16.62;71.38
5938;DHT22;2994;51.220;4.412;2022-10-16T02:35:28;16.64;71.46
5938;DHT22;2994;51.220;4.412;2022-10-16T02:37:55;16.63;71.58
5938;DHT22;2994;51.220;4.412;2022-10-16T02:40:22;16.57;71.61
5938;DHT22;2994;51.220;4.412;2022-10-16T02:42:51;16.60;71.63
5938;DHT22;2994;51.220;4.412;2022-10-16T02:45:17;16.57;71.77
5938;DHT22;2994;51.220;4.412;2022-10-16T02:47:43;16.60;71.82
5938;DHT22;2994;51.220;4.412;2022-10-16T02:50:08;16.60;71.67
5938;DHT22;2994;51.220;4.412;2022-10-16T02:52:34;16.62;71.64
5938;DHT22;2994;51.220;4.412;2022-10-16T02:54:59;16.61;71.67
5938;DHT22;2994;51.220;4.412;2022-10-16T02:57:25;16.56;71.96
5938;DHT22;2994;51.220;4.412;2022-10-16T02:59:50;16.44;72.39
5938;DHT22;2994;51.220;4.412;2022-10-16T03:02:16;16.49;72.32
5938;DHT22;2994;51.220;4.412;2022-10-16T03:04:41;16.42;72.64
5938;DHT22;2994;51.220;4.412;2022-10-16T03:07:07;16.48;72.49
5938;DHT22;2994;51.220;4.412;2022-10-16T03:09:32;16.44;72.62
5938;DHT22;2994;51.220;4.412;2022-10-16T03:11:58;16.50;72.46
5938;DHT22;2994;51.220;4.412;2022-10-16T03:14:23;16.56;72.27
5938;DHT22;2994;51.220;4.412;2022-10-16T03:16:49;16.55;72.29
5938;DHT22;2994;51.220;4.412;2022-10-16T03:19:17;16.51;72.42
5938;DHT22;2994;51.220;4.412;2022-10-16T03:21:43;16.49;72.57
5938;DHT22;2994;51.220;4.412;2022-10-16T03:24:11;16.48;72.56
5938;DHT22;2994;51.220;4.412;2022-10-16T03:26:36;16.43;72.90
5938;DHT22;2994;51.220;4.412;2022-10-16T03:29:02;16.50;72.52
5938;DHT22;2994;51.220;4.412;2022-10-16T03:31:29;16.46;72.65
5938;DHT22;2994;51.220;4.412;2022-10-16T03:33:54;16.57;72.34
5938;DHT22;2994;51.220;4.412;2022-10-16T03:36:19;16.55;72.32
5938;DHT22;2994;51.220;4.412;2022-10-16T03:38:45;16.52;72.63
5938;DHT22;2994;51.220;4.412;2022-10-16T03:41:10;16.54;72.41
5938;DHT22;2994;51.220;4.412;2022-10-16T03:43:36;16.56;72.09
5938;DHT22;2994;51.220;4.412;2022-10-16T03:46:01;16.58;72.25
5938;DHT22;2994;51.220;4.412;2022-10-16T03:48:37;16.57;72.44
5938;DHT22;2994;51.220;4.412;2022-10-16T03:51:05;16.58;72.46
5938;DHT22;2994;51.220;4.412;2022-10-16T03:53:33;16.51;72.73
5938;DHT22;2994;51.220;4.412;2022-10-16T03:55:58;16.54;72.62
5938;DHT22;2994;51.220;4.412;2022-10-16T03:58:25;16.55;72.61
5938;DHT22;2994;51.220;4.412;2022-10-16T04:00:51;16.55;72.62
5938;DHT22;2994;51.220;4.412;2022-10-16T04:03:24;16.54;72.67
5938;DHT22;2994;51.220;4.412;2022-10-16T04:05:52;16.50;72.77
5938;DHT22;2994;51.220;4.412;2022-10-16T04:08:18;16.54;72.72
5938;DHT22;2994;51.220;4.412;2022-10-16T04:10:44;16.54;72.68
5938;DHT22;2994;51.220;4.412;2022-10-16T04:13:10;16.55;72.63
5938;DHT22;2994;51.220;4.412;2022-10-16T04:15:35;16.54;72.60
5938;DHT22;2994;51.220;4.412;2022-10-16T04:18:01;16.55;72.62
5938;DHT22;2994;51.220;4.412;2022-10-16T04:20:28;16.51;72.80
5938;DHT22;2994;51.220;4.412;2022-10-16T04:22:55;16.51;72.77
5938;DHT22;2994;51.220;4.412;2022-10-16T04:25:25;16.51;72.86
5938;DHT22;2994;51.220;4.412;2022-10-16T04:27:53;16.54;72.67
5938;DHT22;2994;51.220;4.412;2022-10-16T04:30:19;16.57;72.55
5938;DHT22;2994;51.220;4.412;2022-10-16T04:32:52;16.51;72.74
5938;DHT22;2994;51.220;4.412;2022-10-16T04:35:21;16.52;72.61
5938;DHT22;2994;51.220;4.412;2022-10-16T04:37:47;16.48;72.74
5938;DHT22;2994;51.220;4.412;2022-10-16T04:40:13;16.49;72.74
5938;DHT22;2994;51.220;4.412;2022-10-16T04:42:39;16.46;72.92
5938;DHT22;2994;51.220;4.412;2022-10-16T04:45:06;16.46;72.99
5938;DHT22;2994;51.220;4.412;2022-10-16T04:47:32;16.42;72.97
5938;DHT22;2994;51.220;4.412;2022-10-16T04:49:58;16.43;73.00
5938;DHT22;2994;51.220;4.412;2022-10-16T04:52:26;16.44;73.00
5938;DHT22;2994;51.220;4.412;2022-10-16T04:54:52;16.36;73.34
5938;DHT22;2994;51.220;4.412;2022-10-16T04:57:20;16.37;73.38
5938;DHT22;2994;51.220;4.412;2022-10-16T04:59:46;16.39;73.28
5938;DHT22;2994;51.220;4.412;2022-10-16T05:02:11;16.37;73.32
5938;DHT22;2994;51.220;4.412;2022-10-16T05:04:37;16.40;73.41
5938;DHT22;2994;51.220;4.412;2022-10-16T05:07:02;16.39;73.41
5938;DHT22;2994;51.220;4.412;2022-10-16T05:09:28;16.36;73.38
5938;DHT22;2994;51.220;4.412;2022-10-16T05:11:54;16.37;73.38
5938;DHT22;2994;51.220;4.412;2022-10-16T05:14:19;16.39;73.33
5938;DHT22;2994;51.220;4.412;2022-10-16T05:16:49;16.35;73.49
5938;DHT22;2994;51.220;4.412;2022-10-16T05:19:15;16.36;73.55
5938;DHT22;2994;51.220;4.412;2022-10-16T05:21:41;16.34;73.60
5938;DHT22;2994;51.220;4.412;2022-10-16T05:24:07;16.34;73.61
5938;DHT22;2994;51.220;4.412;2022-10-16T05:26:36;16.31;73.71
5938;DHT22;2994;51.220;4.412;2022-10-16T05:29:02;16.32;73.63
5938;DHT22;2994;51.220;4.412;2022-10-16T05:31:29;16.31;73.72
5938;DHT22;2994;51.220;4.412;2022-10-16T05:34:01;16.32;73.61
5938;DHT22;2994;51.220;4.412;2022-10-16T05:36:27;16.25;73.95
5938;DHT22;2994;51.220;4.412;2022-10-16T05:38:55;16.28;73.90
5938;DHT22;2994;51.220;4.412;2022-10-16T05:41:24;16.29;73.90
5938;DHT22;2994;51.220;4.412;2022-10-16T05:43:52;16.28;73.83
5938;DHT22;2994;51.220;4.412;2022-10-16T05:46:18;16.28;73.80
5938;DHT22;2994;51.220;4.412;2022-10-16T05:48:45;16.25;73.93
5938;DHT22;2994;51.220;4.412;2022-10-16T05:51:17;16.25;73.92
5938;DHT22;2994;51.220;4.412;2022-10-16T05:53:43;16.25;74.03
5938;DHT22;2994;51.220;4.412;2022-10-16T05:56:10;16.19;74.27
5938;DHT22;2994;51.220;4.412;2022-10-16T05:58:38;16.24;74.14
5938;DHT22;2994;51.220;4.412;2022-10-16T06:01:15;16.25;74.06
5938;DHT22;2994;51.220;4.412;2022-10-16T06:03:41;16.27;74.24
5938;DHT22;2994;51.220;4.412;2022-10-16T06:08:43;16.21;74.26
5938;DHT22;2994;51.220;4.412;2022-10-16T06:11:12;16.27;74.30
5938;DHT22;2994;51.220;4.412;2022-10-16T06:14:01;16.31;74.21
5938;DHT22;2994;51.220;4.412;2022-10-16T06:16:28;16.28;74.23
5938;DHT22;2994;51.220;4.412;2022-10-16T06:18:55;16.28;74.41
5938;DHT22;2994;51.220;4.412;2022-10-16T06:21:25;16.30;74.42
5938;DHT22;2994;51.220;4.412;2022-10-16T06:23:52;16.30;74.33
5938;DHT22;2994;51.220;4.412;2022-10-16T06:26:20;16.29;74.27
5938;DHT22;2994;51.220;4.412;2022-10-16T06:28:46;16.28;74.31
5938;DHT22;2994;51.220;4.412;2022-10-16T06:31:12;16.30;74.40
5938;DHT22;2994;51.220;4.412;2022-10-16T06:33:38;16.29;74.58
5938;DHT22;2994;51.220;4.412;2022-10-16T06:36:07;16.33;74.48
5938;DHT22;2994;51.220;4.412;2022-10-16T06:38:34;16.31;74.44
5938;DHT22;2994;51.220;4.412;2022-10-16T06:40:59;16.34;74.36
5938;DHT22;2994;51.220;4.412;2022-10-16T06:43:25;16.31;74.60
5938;DHT22;2994;51.220;4.412;2022-10-16T06:45:55;16.33;74.48
5938;DHT22;2994;51.220;4.412;2022-10-16T06:48:21;16.30;74.52
5938;DHT22;2994;51.220;4.412;2022-10-16T06:51:19;16.31;74.60
5938;DHT22;2994;51.220;4.412;2022-10-16T06:53:50;16.31;74.68
5938;DHT22;2994;51.220;4.412;2022-10-16T06:56:19;16.30;74.83
5938;DHT22;2994;51.220;4.412;2022-10-16T06:58:45;16.34;74.70
5938;DHT22;2994;51.220;4.412;2022-10-16T07:01:12;16.32;74.94
5938;DHT22;2994;51.220;4.412;2022-10-16T07:03:42;16.34;74.80
5938;DHT22;2994;51.220;4.412;2022-10-16T07:06:10;16.31;75.04
5938;DHT22;2994;51.220;4.412;2022-10-16T07:08:38;16.32;75.05
5938;DHT22;2994;51.220;4.412;2022-10-16T07:11:06;16.37;74.86
5938;DHT22;2994;51.220;4.412;2022-10-16T07:13:39;16.28;75.34
5938;DHT22;2994;51.220;4.412;2022-10-16T07:16:14;16.34;75.21
5938;DHT22;2994;51.220;4.412;2022-10-16T07:18:41;16.35;75.03
5938;DHT22;2994;51.220;4.412;2022-10-16T07:21:13;16.39;75.02
5938;DHT22;2994;51.220;4.412;2022-10-16T07:23:39;16.45;74.75
5938;DHT22;2994;51.220;4.412;2022-10-16T07:26:06;16.46;74.80
5938;DHT22;2994;51.220;4.412;2022-10-16T07:28:32;16.49;74.81
5938;DHT22;2994;51.220;4.412;2022-10-16T07:31:06;16.50;74.80
5938;DHT22;2994;51.220;4.412;2022-10-16T07:33:32;16.52;74.68
5938;DHT22;2994;51.220;4.412;2022-10-16T07:35:57;16.54;74.55
5938;DHT22;2994;51.220;4.412;2022-10-16T07:38:23;16.54;74.51
5938;DHT22;2994;51.220;4.412;2022-10-16T07:40:56;16.62;74.24
5938;DHT22;2994;51.220;4.412;2022-10-16T07:43:21;16.58;74.41
5938;DHT22;2994;51.220;4.412;2022-10-16T07:45:48;16.61;74.43
5938;DHT22;2994;51.220;4.412;2022-10-16T07:48:15;16.63;74.33
5938;DHT22;2994;51.220;4.412;2022-10-16T07:50:40;16.64;74.29
5938;DHT22;2994;51.220;4.412;2022-10-16T07:53:06;16.67;74.18
5938;DHT22;2994;51.220;4.412;2022-10-16T07:55:31;16.67;74.12
5938;DHT22;2994;51.220;4.412;2022-10-16T07:57:57;16.64;74.10
5938;DHT22;2994;51.220;4.412;2022-10-16T08:00:22;16.73;73.74
5938;DHT22;2994;51.220;4.412;2022-10-16T08:02:48;16.67;73.88
5938;DHT22;2994;51.220;4.412;2022-10-16T08:05:13;16.69;74.06
5938;DHT22;2994;51.220;4.412;2022-10-16T08:07:39;16.75;73.93
5938;DHT22;2994;51.220;4.412;2022-10-16T08:10:04;16.82;73.69
5938;DHT22;2994;51.220;4.412;2022-10-16T08:12:30;16.70;73.94
5938;DHT22;2994;51.220;4.412;2022-10-16T08:14:55;16.79;73.57
5938;DHT22;2994;51.220;4.412;2022-10-16T08:17:21;16.74;73.86
5938;DHT22;2994;51.220;4.412;2022-10-16T08:19:47;16.85;73.67
5938;DHT22;2994;51.220;4.412;2022-10-16T08:22:13;16.90;73.57
5938;DHT22;2994;51.220;4.412;2022-10-16T08:24:42;16.99;73.03
5938;DHT22;2994;51.220;4.412;2022-10-16T08:27:07;17.05;73.06
5938;DHT22;2994;51.220;4.412;2022-10-16T08:29:34;17.03;72.87
5938;DHT22;2994;51.220;4.412;2022-10-16T08:31:59;17.06;72.70
5938;DHT22;2994;51.220;4.412;2022-10-16T08:34:25;17.13;72.57
5938;DHT22;2994;51.220;4.412;2022-10-16T08:36:53;17.20;72.29
5938;DHT22;2994;51.220;4.412;2022-10-16T08:39:18;17.13;72.29
5938;DHT22;2994;51.220;4.412;2022-10-16T08:47:22;17.35;71.35
5938;DHT22;2994;51.220;4.412;2022-10-16T08:49:58;17.39;71.16
5938;DHT22;2994;51.220;4.412;2022-10-16T08:52:29;17.40;70.94
5938;DHT22;2994;51.220;4.412;2022-10-16T08:54:56;17.44;71.17
5938;DHT22;2994;51.220;4.412;2022-10-16T08:57:24;17.30;71.51
5938;DHT22;2994;51.220;4.412;2022-10-16T08:59:51;17.35;71.21
5938;DHT22;2994;51.220;4.412;2022-10-16T09:02:35;17.43;70.93
5938;DHT22;2994;51.220;4.412;2022-10-16T09:05:28;17.58;70.43
5938;DHT22;2994;51.220;4.412;2022-10-16T09:08:20;17.62;70.66
5938;DHT22;2994;51.220;4.412;2022-10-16T09:10:59;17.67;70.13
5938;DHT22;2994;51.220;4.412;2022-10-16T09:13:41;17.70;70.23
5938;DHT22;2994;51.220;4.412;2022-10-16T09:16:26;17.75;70.04
5938;DHT22;2994;51.220;4.412;2022-10-16T09:19:22;17.79;69.67
5938;DHT22;2994;51.220;4.412;2022-10-16T09:21:49;17.87;69.38
5938;DHT22;2994;51.220;4.412;2022-10-16T09:24:19;17.89;69.38
5938;DHT22;2994;51.220;4.412;2022-10-16T09:26:46;17.94;69.16
5938;DHT22;2994;51.220;4.412;2022-10-16T09:29:12;17.98;69.12
5938;DHT22;2994;51.220;4.412;2022-10-16T09:31:38;18.04;68.59
5938;DHT22;2994;51.220;4.412;2022-10-16T09:34:05;18.04;68.14
5938;DHT22;2994;51.220;4.412;2022-10-16T09:36:39;18.05;67.85
5938;DHT22;2994;51.220;4.412;2022-10-16T09:39:08;18.08;67.99
5938;DHT22;2994;51.220;4.412;2022-10-16T09:41:36;18.12;68.17
5938;DHT22;2994;51.220;4.412;2022-10-16T09:44:03;18.18;67.91
5938;DHT22;2994;51.220;4.412;2022-10-16T09:46:34;18.18;67.98
5938;DHT22;2994;51.220;4.412;2022-10-16T09:51:33;18.21;67.88
5938;DHT22;2994;51.220;4.412;2022-10-16T09:54:20;18.27;67.17
5938;DHT22;2994;51.220;4.412;2022-10-16T09:56:47;18.29;67.34
5938;DHT22;2994;51.220;4.412;2022-10-16T09:59:21;18.38;67.08
5938;DHT22;2994;51.220;4.412;2022-10-16T10:01:51;18.36;67.17
5938;DHT22;2994;51.220;4.412;2022-10-16T10:04:21;18.35;67.03
5938;DHT22;2994;51.220;4.412;2022-10-16T10:06:51;18.37;66.28
5938;DHT22;2994;51.220;4.412;2022-10-16T10:09:24;18.37;67.87
5938;DHT22;2994;51.220;4.412;2022-10-16T10:11:55;18.40;67.09
5938;DHT22;2994;51.220;4.412;2022-10-16T10:14:34;18.42;67.47
5938;DHT22;2994;51.220;4.412;2022-10-16T10:19:30;18.59;66.48
5938;DHT22;2994;51.220;4.412;2022-10-16T10:36:41;18.84;65.21
5938;DHT22;2994;51.220;4.412;2022-10-16T10:39:24;18.88;65.62
5938;DHT22;2994;51.220;4.412;2022-10-16T10:53:37;18.93;64.98
5938;DHT22;2994;51.220;4.412;2022-10-16T11:01:16;19.02;64.38
5938;DHT22;2994;51.220;4.412;2022-10-16T11:06:55;19.08;64.57
5938;DHT22;2994;51.220;4.412;2022-10-16T11:09:32;19.09;64.58
5938;DHT22;2994;51.220;4.412;2022-10-16T11:12:05;19.15;64.11
5938;DHT22;2994;51.220;4.412;2022-10-16T11:17:17;19.18;63.04
5938;DHT22;2994;51.220;4.412;2022-10-16T11:20:00;19.18;63.18
5938;DHT22;2994;51.220;4.412;2022-10-16T11:22:42;19.28;64.01
5938;DHT22;2994;51.220;4.412;2022-10-16T11:25:26;19.36;63.04
5938;DHT22;2994;51.220;4.412;2022-10-16T11:27:53;19.31;63.04
5938;DHT22;2994;51.220;4.412;2022-10-16T11:30:29;19.35;62.14
5938;DHT22;2994;51.220;4.412;2022-10-16T11:38:33;19.33;61.61
5938;DHT22;2994;51.220;4.412;2022-10-16T11:50:20;19.58;61.48
5938;DHT22;2994;51.220;4.412;2022-10-16T11:52:55;19.59;62.27
5938;DHT22;2994;51.220;4.412;2022-10-16T11:55:28;19.58;60.10
5938;DHT22;2994;51.220;4.412;2022-10-16T11:58:04;19.55;60.01
5938;DHT22;2994;51.220;4.412;2022-10-16T12:01:00;19.58;60.48
5938;DHT22;2994;51.220;4.412;2022-10-16T12:03:30;19.55;60.09
5938;DHT22;2994;51.220;4.412;2022-10-16T12:08:55;19.50;59.76
5938;DHT22;2994;51.220;4.412;2022-10-16T12:16:39;19.50;61.51
5938;DHT22;2994;51.220;4.412;2022-10-16T12:19:16;19.52;61.03
5938;DHT22;2994;51.220;4.412;2022-10-16T12:21:43;19.52;62.21
5938;DHT22;2994;51.220;4.412;2022-10-16T12:24:27;19.51;62.73
5938;DHT22;2994;51.220;4.412;2022-10-16T12:26:55;19.51;61.47
5938;DHT22;2994;51.220;4.412;2022-10-16T12:29:32;19.54;61.74
5938;DHT22;2994;51.220;4.412;2022-10-16T12:31:58;19.58;61.79
5938;DHT22;2994;51.220;4.412;2022-10-16T12:34:50;19.56;62.36
5938;DHT22;2994;51.220;4.412;2022-10-16T12:37:26;19.55;61.96
5938;DHT22;2994;51.220;4.412;2022-10-16T12:39:53;19.57;63.15
5938;DHT22;2994;51.220;4.412;2022-10-16T12:42:41;19.60;61.57
5938;DHT22;2994;51.220;4.412;2022-10-16T12:45:42;19.77;58.80
5938;DHT22;2994;51.220;4.412;2022-10-16T12:48:22;19.76;59.02
5938;DHT22;2994;51.220;4.412;2022-10-16T12:50:47;19.84;59.32
5938;DHT22;2994;51.220;4.412;2022-10-16T12:58:32;19.77;58.70
5938;DHT22;2994;51.220;4.412;2022-10-16T13:01:28;19.97;58.35
5938;DHT22;2994;51.220;4.412;2022-10-16T13:06:51;20.03;57.04
5938;DHT22;2994;51.220;4.412;2022-10-16T13:09:25;20.10;56.62
5938;DHT22;2994;51.220;4.412;2022-10-16T13:22:08;20.22;57.69
5938;DHT22;2994;51.220;4.412;2022-10-16T13:24:59;20.32;57.29
5938;DHT22;2994;51.220;4.412;2022-10-16T13:27:40;20.39;58.09
5938;DHT22;2994;51.220;4.412;2022-10-16T13:30:15;20.50;58.13
5938;DHT22;2994;51.220;4.412;2022-10-16T13:32:45;20.49;55.88
5938;DHT22;2994;51.220;4.412;2022-10-16T13:35:23;20.47;56.15
5938;DHT22;2994;51.220;4.412;2022-10-16T13:37:50;20.45;56.32
5938;DHT22;2994;51.220;4.412;2022-10-16T13:40:23;20.41;56.52
5938;DHT22;2994;51.220;4.412;2022-10-16T13:42:50;20.33;57.00
5938;DHT22;2994;51.220;4.412;2022-10-16T13:45:22;20.44;56.65
5938;DHT22;2994;51.220;4.412;2022-10-16T13:47:48;20.48;57.72
5938;DHT22;2994;51.220;4.412;2022-10-16T13:50:16;20.53;57.06
5938;DHT22;2994;51.220;4.412;2022-10-16T13:52:42;20.58;56.19
5938;DHT22;2994;51.220;4.412;2022-10-16T13:55:18;20.65;56.09
5938;DHT22;2994;51.220;4.412;2022-10-16T13:57:44;20.64;56.55
5938;DHT22;2994;51.220;4.412;2022-10-16T14:00:28;20.62;56.95
5938;DHT22;2994;51.220;4.412;2022-10-16T14:03:15;20.64;55.96
5938;DHT22;2994;51.220;4.412;2022-10-16T14:05:50;20.69;56.24
5938;DHT22;2994;51.220;4.412;2022-10-16T14:08:16;20.76;56.03
5938;DHT22;2994;51.220;4.412;2022-10-16T14:10:42;20.83;57.06
5938;DHT22;2994;51.220;4.412;2022-10-16T14:13:14;20.86;56.49
5938;DHT22;2994;51.220;4.412;2022-10-16T14:15:49;20.93;55.05
5938;DHT22;2994;51.220;4.412;2022-10-16T14:18:23;20.86;56.13
5938;DHT22;2994;51.220;4.412;2022-10-16T14:20:49;20.81;55.65
5938;DHT22;2994;51.220;4.412;2022-10-16T14:23:28;20.83;55.90
5938;DHT22;2994;51.220;4.412;2022-10-16T14:25:58;20.83;56.36
5938;DHT22;2994;51.220;4.412;2022-10-16T14:28:30;20.87;55.49
5938;DHT22;2994;51.220;4.412;2022-10-16T14:30:58;20.85;55.97
5938;DHT22;2994;51.220;4.412;2022-10-16T14:33:31;20.86;55.58
5938;DHT22;2994;51.220;4.412;2022-10-16T14:36:13;20.92;55.29
5938;DHT22;2994;51.220;4.412;2022-10-16T14:38:43;20.93;55.03
5938;DHT22;2994;51.220;4.412;2022-10-16T14:41:13;21.00;56.21
5938;DHT22;2994;51.220;4.412;2022-10-16T14:43:42;20.96;56.89
5938;DHT22;2994;51.220;4.412;2022-10-16T14:46:20;20.94;55.42
5938;DHT22;2994;51.220;4.412;2022-10-16T14:48:50;20.91;56.19
5938;DHT22;2994;51.220;4.412;2022-10-16T14:51:17;20.83;55.49
5938;DHT22;2994;51.220;4.412;2022-10-16T14:53:43;20.84;55.81
5938;DHT22;2994;51.220;4.412;2022-10-16T14:56:15;20.76;56.45
5938;DHT22;2994;51.220;4.412;2022-10-16T14:58:42;20.68;56.33
5938;DHT22;2994;51.220;4.412;2022-10-16T15:01:09;20.70;56.72
5938;DHT22;2994;51.220;4.412;2022-10-16T15:03:36;20.70;57.64
5938;DHT22;2994;51.220;4.412;2022-10-16T15:06:01;20.68;57.37
5938;DHT22;2994;51.220;4.412;2022-10-16T15:08:27;20.64;59.02
5938;DHT22;2994;51.220;4.412;2022-10-16T15:10:52;20.61;58.51
5938;DHT22;2994;51.220;4.412;2022-10-16T15:13:18;20.59;57.37
5938;DHT22;2994;51.220;4.412;2022-10-16T15:15:45;20.57;59.17
5938;DHT22;2994;51.220;4.412;2022-10-16T15:18:11;20.54;58.56
5938;DHT22;2994;51.220;4.412;2022-10-16T15:20:38;20.47;57.45
5938;DHT22;2994;51.220;4.412;2022-10-16T15:23:06;20.44;57.92
5938;DHT22;2994;51.220;4.412;2022-10-16T15:25:42;20.46;59.57
5938;DHT22;2994;51.220;4.412;2022-10-16T15:28:12;20.43;57.66
5938;DHT22;2994;51.220;4.412;2022-10-16T15:30:38;20.44;58.41
5938;DHT22;2994;51.220;4.412;2022-10-16T15:33:05;20.40;57.37
5938;DHT22;2994;51.220;4.412;2022-10-16T15:35:31;20.37;57.88
5938;DHT22;2994;51.220;4.412;2022-10-16T15:37:57;20.34;57.45
5938;DHT22;2994;51.220;4.412;2022-10-16T15:40:23;20.32;57.77
5938;DHT22;2994;51.220;4.412;2022-10-16T15:42:49;20.35;58.06
5938;DHT22;2994;51.220;4.412;2022-10-16T15:45:15;20.34;57.87
5938;DHT22;2994;51.220;4.412;2022-10-16T15:47:41;20.33;58.19
5938;DHT22;2994;51.220;4.412;2022-10-16T15:50:09;20.33;59.69
5938;DHT22;2994;51.220;4.412;2022-10-16T15:52:36;20.30;59.90
5938;DHT22;2994;51.220;4.412;2022-10-16T15:55:01;20.27;60.40
5938;DHT22;2994;51.220;4.412;2022-10-16T15:57:29;20.27;59.77
5938;DHT22;2994;51.220;4.412;2022-10-16T15:59:56;20.24;60.03
5938;DHT22;2994;51.220;4.412;2022-10-16T16:02:22;20.20;59.75
5938;DHT22;2994;51.220;4.412;2022-10-16T16:04:47;20.16;60.68
5938;DHT22;2994;51.220;4.412;2022-10-16T16:07:12;20.14;60.93
5938;DHT22;2994;51.220;4.412;2022-10-16T16:09:41;20.12;61.02
5938;DHT22;2994;51.220;4.412;2022-10-16T16:12:10;20.09;61.15
5938;DHT22;2994;51.220;4.412;2022-10-16T16:14:35;20.09;60.34
5938;DHT22;2994;51.220;4.412;2022-10-16T16:17:11;20.06;61.18
5938;DHT22;2994;51.220;4.412;2022-10-16T16:19:40;20.06;60.34
5938;DHT22;2994;51.220;4.412;2022-10-16T16:22:05;20.03;60.72
5938;DHT22;2994;51.220;4.412;2022-10-16T16:24:37;20.01;60.51
5938;DHT22;2994;51.220;4.412;2022-10-16T16:27:13;20.00;60.50
5938;DHT22;2994;51.220;4.412;2022-10-16T16:29:53;19.99;61.78
5938;DHT22;2994;51.220;4.412;2022-10-16T16:32:22;19.96;61.67
5938;DHT22;2994;51.220;4.412;2022-10-16T16:34:48;19.92;62.91
5938;DHT22;2994;51.220;4.412;2022-10-16T16:37:22;19.88;63.62
5938;DHT22;2994;51.220;4.412;2022-10-16T16:39:51;19.83;64.05
5938;DHT22;2994;51.220;4.412;2022-10-16T16:42:16;19.80;64.81
5938;DHT22;2994;51.220;4.412;2022-10-16T16:44:42;19.74;64.23
5938;DHT22;2994;51.220;4.412;2022-10-16T16:47:08;19.71;64.50
5938;DHT22;2994;51.220;4.412;2022-10-16T16:49:41;19.70;65.32
5938;DHT22;2994;51.220;4.412;2022-10-16T16:52:09;19.68;65.18
5938;DHT22;2994;51.220;4.412;2022-10-16T16:54:35;19.67;65.66
5938;DHT22;2994;51.220;4.412;2022-10-16T16:57:00;19.67;64.24
5938;DHT22;2994;51.220;4.412;2022-10-16T16:59:26;19.65;64.95
5938;DHT22;2994;51.220;4.412;2022-10-16T17:01:51;19.66;65.72
5938;DHT22;2994;51.220;4.412;2022-10-16T17:04:17;19.62;66.07
5938;DHT22;2994;51.220;4.412;2022-10-16T17:06:46;19.57;65.72
5938;DHT22;2994;51.220;4.412;2022-10-16T17:09:12;19.56;65.78
5938;DHT22;2994;51.220;4.412;2022-10-16T17:11:41;19.54;66.71
5938;DHT22;2994;51.220;4.412;2022-10-16T17:14:08;19.51;66.26
5938;DHT22;2994;51.220;4.412;2022-10-16T17:16:41;19.50;66.66
5938;DHT22;2994;51.220;4.412;2022-10-16T17:19:18;19.47;67.05
5938;DHT22;2994;51.220;4.412;2022-10-16T17:21:52;19.44;67.72
5938;DHT22;2994;51.220;4.412;2022-10-16T17:24:18;19.43;66.53
5938;DHT22;2994;51.220;4.412;2022-10-16T17:26:54;19.43;66.86
5938;DHT22;2994;51.220;4.412;2022-10-16T17:29:31;19.43;66.58
5938;DHT22;2994;51.220;4.412;2022-10-16T17:31:56;19.45;65.90
5938;DHT22;2994;51.220;4.412;2022-10-16T17:34:23;19.47;65.62
5938;DHT22;2994;51.220;4.412;2022-10-16T17:36:49;19.48;66.00
5938;DHT22;2994;51.220;4.412;2022-10-16T17:39:16;19.48;66.20
5938;DHT22;2994;51.220;4.412;2022-10-16T17:41:42;19.50;66.27
5938;DHT22;2994;51.220;4.412;2022-10-16T17:44:09;19.51;66.40
5938;DHT22;2994;51.220;4.412;2022-10-16T17:46:35;19.51;66.29
5938;DHT22;2994;51.220;4.412;2022-10-16T17:49:03;19.52;66.33
5938;DHT22;2994;51.220;4.412;2022-10-16T17:51:30;19.53;66.07
5938;DHT22;2994;51.220;4.412;2022-10-16T17:53:58;19.53;65.75
5938;DHT22;2994;51.220;4.412;2022-10-16T17:56:25;19.46;66.68
5938;DHT22;2994;51.220;4.412;2022-10-16T17:58:57;19.45;66.24
5938;DHT22;2994;51.220;4.412;2022-10-16T18:01:28;19.48;66.75
5938;DHT22;2994;51.220;4.412;2022-10-16T18:04:05;19.50;66.43
5938;DHT22;2994;51.220;4.412;2022-10-16T18:06:35;19.46;66.63
5938;DHT22;2994;51.220;4.412;2022-10-16T18:09:01;19.46;67.25
5938;DHT22;2994;51.220;4.412;2022-10-16T18:11:28;19.41;67.65
5938;DHT22;2994;51.220;4.412;2022-10-16T18:13:58;19.39;67.53
5938;DHT22;2994;51.220;4.412;2022-10-16T18:16:26;19.39;68.21